sensor_id;sensor_type;location;lat;lon;timestamp;pressure;altitude;pressure_sealevel;temperature;humidity
58991;BME280;44781;53.444;14.476;2022-11-20T00:01:32;100992.30;;;2.32;82.21
58991;BME280;44781;53.444;14.476;2022-11-20T00:03:59;100990.61;;;2.31;82.26
58991;BME280;44781;53.444;14.476;2022-11-20T00:06:27;100992.21;;;2.29;82.20
58991;BME280;44781;53.444;14.476;2022-11-20T00:08:55;100990.36;;;2.28;82.20
58991;BME280;44781;53.444;14.476;2022-11-20T00:11:23;100987.71;;;2.29;82.13
58991;BME280;44781;53.444;14.476;2022-11-20T00:13:52;100987.95;;;2.32;82.11
58991;BME280;44781;53.444;14.476;2022-11-20T00:16:23;100987.20;;;2.33;82.24
58991;BME280;44781;53.444;14.476;2022-11-20T00:18:54;100988.50;;;2.36;82.29
58991;BME280;44781;53.444;14.476;2022-11-20T00:21:22;100990.38;;;2.37;82.29
58991;BME280;44781;53.444;14.476;2022-11-20T00:23:50;100989.50;;;2.37;82.26
58991;BME280;44781;53.444;14.476;2022-11-20T00:26:18;100990.92;;;2.36;82.12
58991;BME280;44781;53.444;14.476;2022-11-20T00:28:49;100987.33;;;2.34;82.11
58991;BME280;44781;53.444;14.476;2022-11-20T00:31:17;100986.00;;;2.32;82.04
58991;BME280;44781;53.444;14.476;2022-11-20T00:33:44;100986.56;;;2.31;82.10
58991;BME280;44781;53.444;14.476;2022-11-20T00:36:15;100986.70;;;2.33;82.05
58991;BME280;44781;53.444;14.476;2022-11-20T00:38:44;100985.27;;;2.33;82.02
58991;BME280;44781;53.444;14.476;2022-11-20T00:41:12;100985.09;;;2.34;82.07
58991;BME280;44781;53.444;14.476;2022-11-20T00:43:40;100989.06;;;2.35;82.14
58991;BME280;44781;53.444;14.476;2022-11-20T00:46:08;100989.55;;;2.36;82.05
58991;BME280;44781;53.444;14.476;2022-11-20T00:48:36;100986.62;;;2.35;82.00
58991;BME280;44781;53.444;14.476;2022-11-20T00:51:03;100992.10;;;2.33;81.99
58991;BME280;44781;53.444;14.476;2022-11-20T00:53:31;100994.44;;;2.31;82.01
58991;BME280;44781;53.444;14.476;2022-11-20T00:55:59;101004.42;;;2.30;81.93
58991;BME280;44781;53.444;14.476;2022-11-20T00:58:31;100997.69;;;2.28;81.87
58991;BME280;44781;53.444;14.476;2022-11-20T01:01:08;100996.77;;;2.30;82.04
58991;BME280;44781;53.444;14.476;2022-11-20T01:03:36;100996.11;;;2.32;82.10
58991;BME280;44781;53.444;14.476;2022-11-20T01:06:05;100998.80;;;2.35;82.28
58991;BME280;44781;53.444;14.476;2022-11-20T01:08:32;100995.20;;;2.39;82.33
58991;BME280;44781;53.444;14.476;2022-11-20T01:11:04;100995.63;;;2.41;82.32
58991;BME280;44781;53.444;14.476;2022-11-20T01:13:31;100990.52;;;2.42;82.27
58991;BME280;44781;53.444;14.476;2022-11-20T01:18:35;100990.61;;;2.40;82.16
58991;BME280;44781;53.444;14.476;2022-11-20T01:21:07;100990.14;;;2.39;82.02
58991;BME280;44781;53.444;14.476;2022-11-20T01:23:35;100985.09;;;2.39;82.02
58991;BME280;44781;53.444;14.476;2022-11-20T01:26:03;100984.85;;;2.40;82.03
58991;BME280;44781;53.444;14.476;2022-11-20T01:28:31;100980.76;;;2.42;82.02
58991;BME280;44781;53.444;14.476;2022-11-20T01:30:59;100979.83;;;2.44;82.06
58991;BME280;44781;53.444;14.476;2022-11-20T01:33:26;100984.10;;;2.46;82.11
58991;BME280;44781;53.444;14.476;2022-11-20T01:35:53;100981.27;;;2.47;82.04
58991;BME280;44781;53.444;14.476;2022-11-20T01:38:20;100982.60;;;2.49;82.01
58991;BME280;44781;53.444;14.476;2022-11-20T01:40:55;100980.21;;;2.48;81.97
58991;BME280;44781;53.444;14.476;2022-11-20T01:43:23;100983.96;;;2.45;81.98
58991;BME280;44781;53.444;14.476;2022-11-20T01:51:21;100981.16;;;2.45;81.97
58991;BME280;44781;53.444;14.476;2022-11-20T01:53:51;100976.70;;;2.48;81.95
58991;BME280;44781;53.444;14.476;2022-11-20T01:56:22;100973.11;;;2.51;82.09
58991;BME280;44781;53.444;14.476;2022-11-20T01:58:54;100971.27;;;2.53;81.98
58991;BME280;44781;53.444;14.476;2022-11-20T02:01:23;100971.23;;;2.54;81.86
58991;BME280;44781;53.444;14.476;2022-11-20T02:03:50;100967.37;;;2.55;81.88
58991;BME280;44781;53.444;14.476;2022-11-20T02:08:47;100966.79;;;2.52;81.72
58991;BME280;44781;53.444;14.476;2022-11-20T02:11:14;100967.05;;;2.49;81.64
58991;BME280;44781;53.444;14.476;2022-11-20T02:13:41;100966.75;;;2.48;81.60
58991;BME280;44781;53.444;14.476;2022-11-20T02:16:29;100962.52;;;2.49;81.68
58991;BME280;44781;53.444;14.476;2022-11-20T02:18:57;100962.25;;;2.52;81.66
58991;BME280;44781;53.444;14.476;2022-11-20T02:24:22;100960.11;;;2.57;81.69
58991;BME280;44781;53.444;14.476;2022-11-20T02:26:54;100963.00;;;2.59;81.63
58991;BME280;44781;53.444;14.476;2022-11-20T02:29:36;100960.38;;;2.60;81.57
58991;BME280;44781;53.444;14.476;2022-11-20T02:34:48;100965.36;;;2.57;81.45
58991;BME280;44781;53.444;14.476;2022-11-20T02:37:16;100964.27;;;2.54;81.34
58991;BME280;44781;53.444;14.476;2022-11-20T02:39:45;100957.77;;;2.51;81.37
58991;BME280;44781;53.444;14.476;2022-11-20T02:42:19;100958.70;;;2.49;81.33
58991;BME280;44781;53.444;14.476;2022-11-20T02:44:51;100960.59;;;2.50;81.27
58991;BME280;44781;53.444;14.476;2022-11-20T02:47:27;100959.48;;;2.51;81.37
58991;BME280;44781;53.444;14.476;2022-11-20T02:50:04;100957.98;;;2.54;81.48
58991;BME280;44781;53.444;14.476;2022-11-20T02:52:32;100953.35;;;2.56;81.44
58991;BME280;44781;53.444;14.476;2022-11-20T02:55:05;100951.52;;;2.59;81.30
58991;BME280;44781;53.444;14.476;2022-11-20T02:57:33;100952.90;;;2.59;81.26
58991;BME280;44781;53.444;14.476;2022-11-20T03:00:04;100953.42;;;2.59;81.27
58991;BME280;44781;53.444;14.476;2022-11-20T03:02:34;100955.54;;;2.59;81.20
58991;BME280;44781;53.444;14.476;2022-11-20T03:05:01;100953.84;;;2.57;81.03
58991;BME280;44781;53.444;14.476;2022-11-20T03:07:28;100953.42;;;2.55;81.06
58991;BME280;44781;53.444;14.476;2022-11-20T03:09:55;100955.05;;;2.53;80.95
58991;BME280;44781;53.444;14.476;2022-11-20T03:12:22;100958.10;;;2.51;80.94
58991;BME280;44781;53.444;14.476;2022-11-20T03:14:49;100959.75;;;2.53;81.00
58991;BME280;44781;53.444;14.476;2022-11-20T03:17:17;100958.98;;;2.55;80.95
58991;BME280;44781;53.444;14.476;2022-11-20T03:19:45;100956.27;;;2.58;80.96
58991;BME280;44781;53.444;14.476;2022-11-20T03:22:13;100954.60;;;2.60;81.03
58991;BME280;44781;53.444;14.476;2022-11-20T03:24:40;100951.05;;;2.62;80.94
58991;BME280;44781;53.444;14.476;2022-11-20T03:27:12;100947.39;;;2.62;80.83
58991;BME280;44781;53.444;14.476;2022-11-20T03:29:39;100946.20;;;2.61;80.88
58991;BME280;44781;53.444;14.476;2022-11-20T03:32:07;100945.55;;;2.60;80.80
58991;BME280;44781;53.444;14.476;2022-11-20T03:34:34;100944.58;;;2.58;80.81
58991;BME280;44781;53.444;14.476;2022-11-20T03:37:15;100946.62;;;2.55;80.64
58991;BME280;44781;53.444;14.476;2022-11-20T03:39:44;100942.39;;;2.51;80.65
58991;BME280;44781;53.444;14.476;2022-11-20T03:42:11;100940.07;;;2.48;80.59
58991;BME280;44781;53.444;14.476;2022-11-20T03:44:59;100939.20;;;2.48;80.57
58991;BME280;44781;53.444;14.476;2022-11-20T03:47:30;100933.08;;;2.49;80.44
58991;BME280;44781;53.444;14.476;2022-11-20T03:49:58;100928.83;;;2.50;80.50
58991;BME280;44781;53.444;14.476;2022-11-20T03:52:26;100928.95;;;2.51;80.60
58991;BME280;44781;53.444;14.476;2022-11-20T03:54:57;100931.69;;;2.53;80.60
58991;BME280;44781;53.444;14.476;2022-11-20T03:57:27;100933.24;;;2.53;80.64
58991;BME280;44781;53.444;14.476;2022-11-20T03:59:54;100933.96;;;2.52;80.63
58991;BME280;44781;53.444;14.476;2022-11-20T04:02:25;100935.77;;;2.51;80.55
58991;BME280;44781;53.444;14.476;2022-11-20T04:04:54;100934.95;;;2.50;80.59
58991;BME280;44781;53.444;14.476;2022-11-20T04:07:22;100936.09;;;2.47;80.50
58991;BME280;44781;53.444;14.476;2022-11-20T04:09:49;100929.23;;;2.44;80.51
58991;BME280;44781;53.444;14.476;2022-11-20T04:12:17;100925.09;;;2.43;80.36
58991;BME280;44781;53.444;14.476;2022-11-20T04:14:44;100922.98;;;2.44;80.34
58991;BME280;44781;53.444;14.476;2022-11-20T04:17:11;100920.81;;;2.46;80.45
58991;BME280;44781;53.444;14.476;2022-11-20T04:19:40;100918.78;;;2.49;80.55
58991;BME280;44781;53.444;14.476;2022-11-20T04:22:07;100913.09;;;2.51;80.59
58991;BME280;44781;53.444;14.476;2022-11-20T04:24:35;100910.91;;;2.53;80.63
58991;BME280;44781;53.444;14.476;2022-11-20T04:27:02;100908.26;;;2.54;80.51
58991;BME280;44781;53.444;14.476;2022-11-20T04:29:29;100913.14;;;2.55;80.44
58991;BME280;44781;53.444;14.476;2022-11-20T04:31:56;100911.25;;;2.54;80.43
58991;BME280;44781;53.444;14.476;2022-11-20T04:34:23;100908.52;;;2.52;80.31
58991;BME280;44781;53.444;14.476;2022-11-20T04:36:50;100910.19;;;2.50;80.43
58991;BME280;44781;53.444;14.476;2022-11-20T04:39:17;100915.14;;;2.48;80.34
58991;BME280;44781;53.444;14.476;2022-11-20T04:41:44;100913.71;;;2.44;80.19
58991;BME280;44781;53.444;14.476;2022-11-20T04:44:11;100909.27;;;2.42;80.20
58991;BME280;44781;53.444;14.476;2022-11-20T04:46:41;100907.19;;;2.42;80.22
58991;BME280;44781;53.444;14.476;2022-11-20T04:49:08;100907.15;;;2.43;80.28
58991;BME280;44781;53.444;14.476;2022-11-20T04:51:35;100911.26;;;2.45;80.19
58991;BME280;44781;53.444;14.476;2022-11-20T04:54:02;100907.85;;;2.47;80.36
58991;BME280;44781;53.444;14.476;2022-11-20T04:56:30;100907.73;;;2.50;80.47
58991;BME280;44781;53.444;14.476;2022-11-20T04:58:59;100913.60;;;2.52;80.35
58991;BME280;44781;53.444;14.476;2022-11-20T05:01:26;100908.82;;;2.53;80.34
58991;BME280;44781;53.444;14.476;2022-11-20T05:03:54;100910.09;;;2.52;80.26
58991;BME280;44781;53.444;14.476;2022-11-20T05:06:21;100909.98;;;2.51;80.23
58991;BME280;44781;53.444;14.476;2022-11-20T05:08:48;100910.20;;;2.49;80.20
58991;BME280;44781;53.444;14.476;2022-11-20T05:11:18;100908.41;;;2.46;80.21
58991;BME280;44781;53.444;14.476;2022-11-20T05:13:45;100906.79;;;2.43;80.14
58991;BME280;44781;53.444;14.476;2022-11-20T05:16:13;100909.23;;;2.44;80.13
58991;BME280;44781;53.444;14.476;2022-11-20T05:18:41;100910.17;;;2.46;80.19
58991;BME280;44781;53.444;14.476;2022-11-20T05:21:09;100909.73;;;2.48;80.33
58991;BME280;44781;53.444;14.476;2022-11-20T05:23:37;100906.14;;;2.50;80.31
58991;BME280;44781;53.444;14.476;2022-11-20T05:26:05;100904.04;;;2.51;80.33
58991;BME280;44781;53.444;14.476;2022-11-20T05:28:32;100910.02;;;2.54;80.32
58991;BME280;44781;53.444;14.476;2022-11-20T05:31:06;100905.67;;;2.53;80.32
58991;BME280;44781;53.444;14.476;2022-11-20T05:33:34;100902.77;;;2.52;80.21
58991;BME280;44781;53.444;14.476;2022-11-20T05:36:02;100907.73;;;2.50;80.11
58991;BME280;44781;53.444;14.476;2022-11-20T05:38:29;100905.10;;;2.46;80.11
58991;BME280;44781;53.444;14.476;2022-11-20T05:41:02;100901.41;;;2.43;80.20
58991;BME280;44781;53.444;14.476;2022-11-20T05:43:34;100897.15;;;2.40;80.17
58991;BME280;44781;53.444;14.476;2022-11-20T05:46:08;100891.23;;;2.40;80.17
58991;BME280;44781;53.444;14.476;2022-11-20T05:48:37;100881.38;;;2.33;80.25
58991;BME280;44781;53.444;14.476;2022-11-20T05:51:04;100891.06;;;2.44;80.44
58991;BME280;44781;53.444;14.476;2022-11-20T05:53:36;100888.16;;;2.47;80.50
58991;BME280;44781;53.444;14.476;2022-11-20T05:56:05;100882.67;;;2.49;80.39
58991;BME280;44781;53.444;14.476;2022-11-20T05:58:32;100878.27;;;2.50;80.49
58991;BME280;44781;53.444;14.476;2022-11-20T06:01:06;100878.43;;;2.50;80.47
58991;BME280;44781;53.444;14.476;2022-11-20T06:03:34;100879.33;;;2.49;80.45
58991;BME280;44781;53.444;14.476;2022-11-20T06:06:04;100876.78;;;2.48;80.37
58991;BME280;44781;53.444;14.476;2022-11-20T06:08:31;100879.67;;;2.45;80.37
58991;BME280;44781;53.444;14.476;2022-11-20T06:11:02;100881.19;;;2.42;80.39
58991;BME280;44781;53.444;14.476;2022-11-20T06:13:29;100880.88;;;2.42;80.46
58991;BME280;44781;53.444;14.476;2022-11-20T06:15:58;100880.29;;;2.43;80.46
58991;BME280;44781;53.444;14.476;2022-11-20T06:18:28;100882.29;;;2.45;80.56
58991;BME280;44781;53.444;14.476;2022-11-20T06:20:59;100882.49;;;2.49;80.68
58991;BME280;44781;53.444;14.476;2022-11-20T06:23:27;100881.71;;;2.51;80.70
58991;BME280;44781;53.444;14.476;2022-11-20T06:25:55;100879.06;;;2.52;80.65
58991;BME280;44781;53.444;14.476;2022-11-20T06:28:22;100882.90;;;2.51;80.65
58991;BME280;44781;53.444;14.476;2022-11-20T06:30:49;100885.55;;;2.51;80.59
58991;BME280;44781;53.444;14.476;2022-11-20T06:33:16;100883.00;;;2.49;80.52
58991;BME280;44781;53.444;14.476;2022-11-20T06:35:44;100880.17;;;2.46;80.53
58991;BME280;44781;53.444;14.476;2022-11-20T06:38:11;100880.98;;;2.43;80.47
58991;BME280;44781;53.444;14.476;2022-11-20T06:40:41;100882.38;;;2.43;80.48
58991;BME280;44781;53.444;14.476;2022-11-20T06:43:09;100884.62;;;2.44;80.60
58991;BME280;44781;53.444;14.476;2022-11-20T06:45:36;100878.61;;;2.46;80.62
58991;BME280;44781;53.444;14.476;2022-11-20T06:48:03;100876.93;;;2.48;80.72
58991;BME280;44781;53.444;14.476;2022-11-20T06:50:30;100871.26;;;2.51;80.90
58991;BME280;44781;53.444;14.476;2022-11-20T06:53:00;100874.65;;;2.53;80.86
58991;BME280;44781;53.444;14.476;2022-11-20T06:55:27;100877.08;;;2.53;80.67
58991;BME280;44781;53.444;14.476;2022-11-20T06:57:54;100874.38;;;2.51;80.68
58991;BME280;44781;53.444;14.476;2022-11-20T07:00:22;100872.85;;;2.50;80.62
58991;BME280;44781;53.444;14.476;2022-11-20T07:02:49;100874.70;;;2.47;80.59
58991;BME280;44781;53.444;14.476;2022-11-20T07:05:16;100871.30;;;2.45;80.64
58991;BME280;44781;53.444;14.476;2022-11-20T07:07:44;100869.95;;;2.44;80.64
58991;BME280;44781;53.444;14.476;2022-11-20T07:10:11;100867.27;;;2.46;80.66
58991;BME280;44781;53.444;14.476;2022-11-20T07:12:39;100866.46;;;2.49;80.71
58991;BME280;44781;53.444;14.476;2022-11-20T07:15:06;100862.20;;;2.51;80.74
58991;BME280;44781;53.444;14.476;2022-11-20T07:17:33;100860.69;;;2.53;80.83
58991;BME280;44781;53.444;14.476;2022-11-20T07:20:00;100861.30;;;2.55;80.82
58991;BME280;44781;53.444;14.476;2022-11-20T07:22:27;100858.98;;;2.57;80.97
58991;BME280;44781;53.444;14.476;2022-11-20T07:24:58;100857.27;;;2.55;80.81
58991;BME280;44781;53.444;14.476;2022-11-20T07:27:29;100855.23;;;2.54;80.71
58991;BME280;44781;53.444;14.476;2022-11-20T07:29:59;100860.16;;;2.53;80.68
58991;BME280;44781;53.444;14.476;2022-11-20T07:32:26;100859.39;;;2.51;80.70
58991;BME280;44781;53.444;14.476;2022-11-20T07:34:53;100857.54;;;2.49;80.59
58991;BME280;44781;53.444;14.476;2022-11-20T07:37:21;100858.53;;;2.50;80.67
58991;BME280;44781;53.444;14.476;2022-11-20T07:39:48;100855.10;;;2.53;80.81
58991;BME280;44781;53.444;14.476;2022-11-20T07:42:16;100852.03;;;2.56;80.86
58991;BME280;44781;53.444;14.476;2022-11-20T07:44:43;100852.05;;;2.60;80.93
58991;BME280;44781;53.444;14.476;2022-11-20T07:47:09;100857.02;;;2.62;80.93
58991;BME280;44781;53.444;14.476;2022-11-20T07:49:36;100856.05;;;2.64;80.94
58991;BME280;44781;53.444;14.476;2022-11-20T07:52:03;100854.61;;;2.65;80.79
58991;BME280;44781;53.444;14.476;2022-11-20T07:54:31;100854.65;;;2.65;80.81
58991;BME280;44781;53.444;14.476;2022-11-20T07:56:58;100853.11;;;2.64;80.81
58991;BME280;44781;53.444;14.476;2022-11-20T07:59:25;100842.64;;;2.55;80.68
58991;BME280;44781;53.444;14.476;2022-11-20T08:01:52;100850.27;;;2.61;80.70
58991;BME280;44781;53.444;14.476;2022-11-20T08:04:19;100853.01;;;2.62;80.66
58991;BME280;44781;53.444;14.476;2022-11-20T08:06:47;100854.67;;;2.64;80.61
58991;BME280;44781;53.444;14.476;2022-11-20T08:09:14;100851.42;;;2.66;80.74
58991;BME280;44781;53.444;14.476;2022-11-20T08:11:41;100851.63;;;2.70;80.83
58991;BME280;44781;53.444;14.476;2022-11-20T08:14:27;100850.77;;;2.74;80.82
58991;BME280;44781;53.444;14.476;2022-11-20T08:16:54;100851.86;;;2.77;80.80
58991;BME280;44781;53.444;14.476;2022-11-20T08:19:21;100846.55;;;2.79;80.81
58991;BME280;44781;53.444;14.476;2022-11-20T08:21:48;100841.59;;;2.81;80.73
58991;BME280;44781;53.444;14.476;2022-11-20T08:24:16;100844.04;;;2.80;80.63
58991;BME280;44781;53.444;14.476;2022-11-20T08:26:46;100844.80;;;2.79;80.48
58991;BME280;44781;53.444;14.476;2022-11-20T08:29:13;100845.40;;;2.77;80.39
58991;BME280;44781;53.444;14.476;2022-11-20T08:31:41;100851.73;;;2.76;80.34
58991;BME280;44781;53.444;14.476;2022-11-20T08:34:28;100850.14;;;2.76;80.31
58991;BME280;44781;53.444;14.476;2022-11-20T08:36:56;100848.79;;;2.80;80.49
58991;BME280;44781;53.444;14.476;2022-11-20T08:39:25;100844.30;;;2.83;80.34
58991;BME280;44781;53.444;14.476;2022-11-20T08:41:52;100840.65;;;2.86;80.39
58991;BME280;44781;53.444;14.476;2022-11-20T08:44:19;100836.88;;;2.89;80.32
58991;BME280;44781;53.444;14.476;2022-11-20T08:46:46;100834.00;;;2.91;80.29
58991;BME280;44781;53.444;14.476;2022-11-20T08:49:16;100834.84;;;2.91;80.27
58991;BME280;44781;53.444;14.476;2022-11-20T08:51:45;100833.29;;;2.91;80.16
58991;BME280;44781;53.444;14.476;2022-11-20T08:54:14;100833.13;;;2.91;80.02
58991;BME280;44781;53.444;14.476;2022-11-20T08:56:41;100831.10;;;2.89;79.91
58991;BME280;44781;53.444;14.476;2022-11-20T08:59:08;100828.31;;;2.85;79.91
58991;BME280;44781;53.444;14.476;2022-11-20T09:01:35;100825.73;;;2.84;79.91
58991;BME280;44781;53.444;14.476;2022-11-20T09:04:03;100825.95;;;2.83;79.92
58991;BME280;44781;53.444;14.476;2022-11-20T09:06:31;100825.21;;;2.84;79.82
58991;BME280;44781;53.444;14.476;2022-11-20T09:08:58;100825.11;;;2.86;79.78
58991;BME280;44781;53.444;14.476;2022-11-20T09:11:26;100829.35;;;2.89;79.84
58991;BME280;44781;53.444;14.476;2022-11-20T09:13:53;100828.34;;;2.93;79.89
58991;BME280;44781;53.444;14.476;2022-11-20T09:16:20;100834.33;;;2.95;79.87
58991;BME280;44781;53.444;14.476;2022-11-20T09:18:56;100830.42;;;2.97;79.92
58991;BME280;44781;53.444;14.476;2022-11-20T09:21:23;100831.77;;;2.98;79.79
58991;BME280;44781;53.444;14.476;2022-11-20T09:23:51;100831.07;;;2.98;79.82
58991;BME280;44781;53.444;14.476;2022-11-20T09:26:18;100828.48;;;2.98;79.70
58991;BME280;44781;53.444;14.476;2022-11-20T09:28:45;100827.96;;;2.97;79.79
58991;BME280;44781;53.444;14.476;2022-11-20T09:31:30;100828.02;;;2.96;79.69
58991;BME280;44781;53.444;14.476;2022-11-20T09:33:58;100825.86;;;2.93;79.63
58991;BME280;44781;53.444;14.476;2022-11-20T09:36:25;100826.09;;;2.92;79.63
58991;BME280;44781;53.444;14.476;2022-11-20T09:38:53;100826.41;;;2.93;79.58
58991;BME280;44781;53.444;14.476;2022-11-20T09:42:09;100822.63;;;2.95;79.49
58991;BME280;44781;53.444;14.476;2022-11-20T09:49:28;100824.36;;;3.08;79.69
58991;BME280;44781;53.444;14.476;2022-11-20T09:54:33;100819.43;;;3.13;79.41
58991;BME280;44781;53.444;14.476;2022-11-20T09:57:21;100814.50;;;3.14;79.43
58991;BME280;44781;53.444;14.476;2022-11-20T10:00:00;100811.88;;;3.14;79.33
58991;BME280;44781;53.444;14.476;2022-11-20T10:07:27;100813.63;;;3.10;79.18
58991;BME280;44781;53.444;14.476;2022-11-20T10:09:57;100810.34;;;3.09;79.07
58991;BME280;44781;53.444;14.476;2022-11-20T10:12:31;100804.67;;;3.07;79.07
58991;BME280;44781;53.444;14.476;2022-11-20T10:30:24;100795.89;;;3.28;78.70
58991;BME280;44781;53.444;14.476;2022-11-20T10:32:52;100796.41;;;3.28;78.59
58991;BME280;44781;53.444;14.476;2022-11-20T10:35:33;100795.20;;;3.28;78.46
58991;BME280;44781;53.444;14.476;2022-11-20T10:38:02;100788.97;;;3.26;78.34
58991;BME280;44781;53.444;14.476;2022-11-20T10:40:34;100788.05;;;3.24;78.19
58991;BME280;44781;53.444;14.476;2022-11-20T10:43:10;100784.39;;;3.20;78.09
58991;BME280;44781;53.444;14.476;2022-11-20T10:45:45;100783.35;;;3.15;77.96
58991;BME280;44781;53.444;14.476;2022-11-20T10:48:21;100782.48;;;3.12;77.98
58991;BME280;44781;53.444;14.476;2022-11-20T10:51:10;100783.73;;;3.07;77.94
58991;BME280;44781;53.444;14.476;2022-11-20T11:01:16;100783.38;;;2.91;77.88
58991;BME280;44781;53.444;14.476;2022-11-20T11:03:46;100779.02;;;2.91;77.91
58991;BME280;44781;53.444;14.476;2022-11-20T11:08:53;100771.98;;;2.96;78.15
58991;BME280;44781;53.444;14.476;2022-11-20T11:11:28;100772.48;;;3.01;78.23
58991;BME280;44781;53.444;14.476;2022-11-20T11:14:06;100769.55;;;3.04;78.16
58991;BME280;44781;53.444;14.476;2022-11-20T11:16:34;100768.59;;;3.06;78.21
58991;BME280;44781;53.444;14.476;2022-11-20T11:19:05;100766.80;;;3.07;78.10
58991;BME280;44781;53.444;14.476;2022-11-20T11:21:33;100767.55;;;3.06;78.05
58991;BME280;44781;53.444;14.476;2022-11-20T11:24:03;100766.16;;;3.05;78.06
58991;BME280;44781;53.444;14.476;2022-11-20T11:26:30;100765.04;;;3.04;77.86
58991;BME280;44781;53.444;14.476;2022-11-20T11:28:58;100762.56;;;3.00;77.84
58991;BME280;44781;53.444;14.476;2022-11-20T11:31:26;100762.52;;;2.97;77.83
58991;BME280;44781;53.444;14.476;2022-11-20T11:34:03;100760.05;;;2.94;77.84
58991;BME280;44781;53.444;14.476;2022-11-20T11:36:30;100759.16;;;2.90;77.67
58991;BME280;44781;53.444;14.476;2022-11-20T11:39:02;100759.13;;;2.87;77.65
58991;BME280;44781;53.444;14.476;2022-11-20T11:41:33;100758.70;;;2.85;77.74
58991;BME280;44781;53.444;14.476;2022-11-20T11:44:12;100759.33;;;2.83;77.80
58991;BME280;44781;53.444;14.476;2022-11-20T11:47:01;100755.64;;;2.80;77.76
58991;BME280;44781;53.444;14.476;2022-11-20T11:49:29;100756.26;;;2.77;77.81
58991;BME280;44781;53.444;14.476;2022-11-20T11:57:12;100752.98;;;2.80;77.93
58991;BME280;44781;53.444;14.476;2022-11-20T12:05:16;100747.77;;;2.95;78.05
58991;BME280;44781;53.444;14.476;2022-11-20T12:10:20;100743.27;;;3.02;77.93
58991;BME280;44781;53.444;14.476;2022-11-20T12:12:50;100743.89;;;3.04;77.95
58991;BME280;44781;53.444;14.476;2022-11-20T12:15:23;100737.90;;;3.05;77.72
58991;BME280;44781;53.444;14.476;2022-11-20T12:17:52;100738.03;;;3.02;77.47
58991;BME280;44781;53.444;14.476;2022-11-20T12:20:19;100735.12;;;3.01;77.45
58991;BME280;44781;53.444;14.476;2022-11-20T12:25:48;100737.42;;;2.96;77.33
58991;BME280;44781;53.444;14.476;2022-11-20T12:33:31;100733.16;;;2.90;77.39
58991;BME280;44781;53.444;14.476;2022-11-20T12:44:14;100724.92;;;2.79;77.31
58991;BME280;44781;53.444;14.476;2022-11-20T12:49:48;100721.95;;;2.71;77.16
58991;BME280;44781;53.444;14.476;2022-11-20T12:52:24;100717.95;;;2.67;77.25
58991;BME280;44781;53.444;14.476;2022-11-20T13:05:17;100712.56;;;2.83;77.64
58991;BME280;44781;53.444;14.476;2022-11-20T13:07:46;100710.84;;;2.86;77.57
58991;BME280;44781;53.444;14.476;2022-11-20T13:10:16;100706.47;;;2.86;77.52
58991;BME280;44781;53.444;14.476;2022-11-20T13:12:46;100710.55;;;2.89;77.45
58991;BME280;44781;53.444;14.476;2022-11-20T13:18:03;100710.89;;;2.85;77.30
58991;BME280;44781;53.444;14.476;2022-11-20T13:20:31;100709.08;;;2.83;77.31
58991;BME280;44781;53.444;14.476;2022-11-20T13:23:00;100705.33;;;2.81;77.37
58991;BME280;44781;53.444;14.476;2022-11-20T13:25:34;100703.69;;;2.78;77.33
58991;BME280;44781;53.444;14.476;2022-11-20T13:30:48;100696.40;;;2.73;77.47
58991;BME280;44781;53.444;14.476;2022-11-20T13:36:00;100692.03;;;2.69;77.45
58991;BME280;44781;53.444;14.476;2022-11-20T13:38:46;100692.51;;;2.66;77.48
58991;BME280;44781;53.444;14.476;2022-11-20T13:41:28;100695.59;;;2.64;77.37
58991;BME280;44781;53.444;14.476;2022-11-20T13:46:47;100691.85;;;2.66;77.48
58991;BME280;44781;53.444;14.476;2022-11-20T13:49:34;100687.06;;;2.67;77.38
58991;BME280;44781;53.444;14.476;2022-11-20T14:01:38;100677.30;;;2.79;77.52
58991;BME280;44781;53.444;14.476;2022-11-20T14:03:33;100673.12;;;2.79;77.48
58991;BME280;44781;53.444;14.476;2022-11-20T14:06:03;100672.63;;;2.79;77.42
58991;BME280;44781;53.444;14.476;2022-11-20T14:11:17;100670.32;;;2.75;77.38
58991;BME280;44781;53.444;14.476;2022-11-20T14:13:52;100670.98;;;2.72;77.42
58991;BME280;44781;53.444;14.476;2022-11-20T14:16:20;100671.64;;;2.69;77.37
58991;BME280;44781;53.444;14.476;2022-11-20T14:18:48;100668.45;;;2.66;77.32
58991;BME280;44781;53.444;14.476;2022-11-20T14:21:26;100667.27;;;2.61;77.33
58991;BME280;44781;53.444;14.476;2022-11-20T14:24:04;100669.58;;;2.57;77.26
58991;BME280;44781;53.444;14.476;2022-11-20T14:26:31;100668.56;;;2.52;77.34
58991;BME280;44781;53.444;14.476;2022-11-20T14:29:01;100660.30;;;2.41;77.31
58991;BME280;44781;53.444;14.476;2022-11-20T14:31:28;100661.91;;;2.41;77.36
58991;BME280;44781;53.444;14.476;2022-11-20T14:33:55;100665.71;;;2.42;77.52
58991;BME280;44781;53.444;14.476;2022-11-20T14:36:24;100665.20;;;2.41;77.75
58991;BME280;44781;53.444;14.476;2022-11-20T14:38:53;100667.77;;;2.42;77.76
58991;BME280;44781;53.444;14.476;2022-11-20T14:41:22;100666.60;;;2.45;77.90
58991;BME280;44781;53.444;14.476;2022-11-20T14:43:51;100669.41;;;2.48;77.83
58991;BME280;44781;53.444;14.476;2022-11-20T14:46:20;100671.30;;;2.49;77.84
58991;BME280;44781;53.444;14.476;2022-11-20T14:48:54;100665.89;;;2.49;77.82
58991;BME280;44781;53.444;14.476;2022-11-20T14:51:23;100662.94;;;2.49;77.93
58991;BME280;44781;53.444;14.476;2022-11-20T14:54:08;100663.53;;;2.47;77.79
58991;BME280;44781;53.444;14.476;2022-11-20T14:56:57;100661.41;;;2.44;77.69
58991;BME280;44781;53.444;14.476;2022-11-20T14:59:30;100659.65;;;2.41;77.72
58991;BME280;44781;53.444;14.476;2022-11-20T15:01:58;100660.52;;;2.36;77.61
58991;BME280;44781;53.444;14.476;2022-11-20T15:04:27;100663.54;;;2.31;77.65